createdAt,value
2018-07-20T00:00:11.710Z,86.20
2018-07-20T00:02:40.976Z,84.55
2018-07-20T00:05:10.206Z,85.48
2018-07-20T00:07:39.431Z,86.92
2018-07-20T00:10:08.699Z,86.80
2018-07-20T00:12:37.914Z,87.70
2018-07-20T00:15:07.213Z,87.44
2018-07-20T00:17:36.463Z,87.27
2018-07-20T00:20:06.193Z,87.00
2018-07-20T00:22:35.458Z,87.60
2018-07-20T00:25:04.852Z,87.84
2018-07-20T00:27:34.080Z,88.44
2018-07-20T00:30:03.380Z,86.83
2018-07-20T00:32:32.570Z,87.92
2018-07-20T00:35:01.830Z,88.39
2018-07-20T00:37:31.047Z,88.66
2018-07-20T00:40:00.275Z,89.25
2018-07-20T00:42:29.529Z,89.44
2018-07-20T00:44:58.759Z,89.66
2018-07-20T00:47:28.008Z,90.19
2018-07-20T00:49:57.249Z,90.64
2018-07-20T00:52:26.495Z,90.34
2018-07-20T00:54:55.723Z,90.09
2018-07-20T00:57:24.974Z,86.96
2018-07-20T00:59:55.161Z,86.05
2018-07-20T01:02:24.404Z,88.17
2018-07-20T01:04:53.615Z,88.66
2018-07-20T01:07:22.924Z,89.43
2018-07-20T01:09:52.170Z,90.12
2018-07-20T01:12:21.442Z,88.44
2018-07-20T01:14:50.672Z,89.88
2018-07-20T01:17:19.918Z,89.92
2018-07-20T01:19:49.122Z,90.20
2018-07-20T01:22:18.375Z,90.28
2018-07-20T01:24:47.653Z,90.39
2018-07-20T01:27:16.973Z,90.33
2018-07-20T01:29:46.195Z,89.05
2018-07-20T01:32:15.453Z,89.21
2018-07-20T01:34:44.717Z,89.43
2018-07-20T01:37:13.918Z,90.64
2018-07-20T01:39:43.146Z,90.45
2018-07-20T01:42:12.638Z,90.75
2018-07-20T01:44:41.850Z,90.10
2018-07-20T01:47:11.072Z,90.76
2018-07-20T01:49:40.334Z,89.09
2018-07-20T01:52:09.629Z,90.25
2018-07-20T01:54:38.934Z,90.64
2018-07-20T01:57:08.161Z,91.06
2018-07-20T01:59:37.415Z,91.51
2018-07-20T02:02:06.678Z,91.20
2018-07-20T02:04:35.902Z,91.51
2018-07-20T02:07:05.130Z,91.21
2018-07-20T02:09:34.395Z,90.89
2018-07-20T02:12:03.638Z,90.92
2018-07-20T02:14:32.877Z,90.76
2018-07-20T02:17:02.099Z,89.93
2018-07-20T02:19:31.355Z,90.37
2018-07-20T02:22:00.619Z,91.11
2018-07-20T02:24:31.118Z,91.67
2018-07-20T02:27:00.355Z,91.34
2018-07-20T02:29:29.627Z,91.47
2018-07-20T02:31:58.855Z,91.67
2018-07-20T02:34:28.092Z,91.70
2018-07-20T02:36:57.346Z,91.71
2018-07-20T02:39:26.600Z,91.79
2018-07-20T02:41:55.838Z,91.69
2018-07-20T02:44:25.053Z,91.50
2018-07-20T02:46:54.328Z,92.19
2018-07-20T02:49:23.561Z,92.74
2018-07-20T02:51:52.818Z,92.66
2018-07-20T02:54:22.084Z,92.37
2018-07-20T02:56:51.303Z,92.35
2018-07-20T02:59:20.531Z,92.76
2018-07-20T03:01:49.771Z,92.63
2018-07-20T03:04:19.097Z,93.19
2018-07-20T03:06:48.327Z,92.50
2018-07-20T03:09:17.578Z,92.12
2018-07-20T03:11:46.937Z,92.01
2018-07-20T03:14:16.168Z,92.65
2018-07-20T03:16:45.458Z,92.59
2018-07-20T03:19:14.694Z,93.16
2018-07-20T03:21:43.941Z,92.20
2018-07-20T03:24:13.255Z,91.28
2018-07-20T03:26:42.469Z,90.87
2018-07-20T03:29:11.698Z,91.79
2018-07-20T03:31:40.935Z,92.80
2018-07-20T03:34:10.168Z,92.93
2018-07-20T03:36:40.666Z,93.46
2018-07-20T03:39:10.580Z,93.13
2018-07-20T03:41:39.833Z,93.36
2018-07-20T03:44:09.328Z,93.30
2018-07-20T03:46:38.586Z,93.34
2018-07-20T03:49:08.816Z,92.51
2018-07-20T03:51:38.031Z,91.91
2018-07-20T03:54:07.302Z,91.26
2018-07-20T03:56:36.582Z,90.57
2018-07-20T03:59:05.863Z,90.47
2018-07-20T04:01:35.107Z,89.98
2018-07-20T04:04:04.437Z,91.08
2018-07-20T04:06:33.660Z,91.59
2018-07-20T04:09:02.925Z,91.07
2018-07-20T04:11:32.207Z,91.77
2018-07-20T04:14:01.438Z,90.57
2018-07-20T04:16:30.670Z,89.67
2018-07-20T04:18:59.919Z,89.69
2018-07-20T04:21:29.196Z,89.68
2018-07-20T04:23:58.414Z,90.46
2018-07-20T04:26:27.690Z,90.07
2018-07-20T04:28:56.910Z,89.27
2018-07-20T04:31:26.130Z,87.89
2018-07-20T04:33:55.346Z,87.94
2018-07-20T04:36:24.604Z,88.00
2018-07-20T04:38:53.795Z,88.04
2018-07-20T04:41:23.066Z,86.52
2018-07-20T04:43:52.466Z,85.95
2018-07-20T04:46:21.688Z,86.10
2018-07-20T04:48:50.949Z,85.13
2018-07-20T04:51:20.174Z,84.20
2018-07-20T04:53:49.394Z,83.87
2018-07-20T04:56:18.646Z,85.16
2018-07-20T04:58:47.857Z,83.85
2018-07-20T05:01:17.191Z,83.05
2018-07-20T05:03:46.429Z,72.81
2018-07-20T05:06:15.722Z,63.26
2018-07-20T05:08:44.963Z,60.50
2018-07-20T05:11:14.198Z,55.83
2018-07-20T05:13:44.690Z,51.70
2018-07-20T05:16:13.955Z,47.04
2018-07-20T05:18:43.181Z,46.01
2018-07-20T05:21:12.450Z,46.82
2018-07-20T05:23:41.702Z,45.32
2018-07-20T05:26:10.921Z,44.88
2018-07-20T05:28:41.220Z,43.21
2018-07-20T05:31:10.510Z,38.45
2018-07-20T05:33:39.731Z,36.94
2018-07-20T05:36:08.988Z,32.90
2018-07-20T05:38:38.226Z,31.62
2018-07-20T05:41:07.575Z,32.63
2018-07-20T05:43:36.794Z,32.92
2018-07-20T05:46:06.015Z,32.90
2018-07-20T05:48:35.287Z,34.35
2018-07-20T05:51:04.528Z,33.51
2018-07-20T05:53:33.777Z,32.82
2018-07-20T05:56:03.022Z,35.09
2018-07-20T05:58:32.409Z,32.63
2018-07-20T06:01:02.530Z,34.03
2018-07-20T06:03:31.894Z,34.46
2018-07-20T06:06:01.142Z,32.87
2018-07-20T06:08:30.370Z,31.98
2018-07-20T06:10:59.607Z,28.55
2018-07-20T06:13:28.850Z,29.01
2018-07-20T06:15:58.094Z,27.98
2018-07-20T06:18:27.337Z,27.57
2018-07-20T06:20:56.644Z,25.99
2018-07-20T06:23:25.900Z,25.61
2018-07-20T06:25:55.109Z,25.83
2018-07-20T06:28:24.342Z,28.60
2018-07-20T06:30:53.587Z,29.11
2018-07-20T06:33:22.845Z,26.91
2018-07-20T06:35:52.102Z,27.85
2018-07-20T06:38:21.326Z,27.53
2018-07-20T06:40:50.647Z,30.34
2018-07-20T06:43:20.069Z,25.69
2018-07-20T06:45:49.487Z,24.00
2018-07-20T06:48:18.703Z,24.55
2018-07-20T06:50:48.102Z,22.53
2018-07-20T06:53:17.338Z,24.39
2018-07-20T06:55:46.639Z,23.28
2018-07-20T06:58:15.881Z,22.64
2018-07-20T07:00:45.115Z,21.89
2018-07-20T07:03:14.362Z,23.61
2018-07-20T07:05:43.626Z,23.39
2018-07-20T07:08:12.870Z,21.15
2018-07-20T07:10:42.077Z,22.31
2018-07-20T07:13:11.348Z,22.73
2018-07-20T07:15:40.583Z,22.74
2018-07-20T07:18:09.834Z,21.53
2018-07-20T07:20:39.138Z,20.70
2018-07-20T07:23:08.339Z,19.40
2018-07-20T07:25:38.846Z,22.11
2018-07-20T07:28:08.080Z,21.92
2018-07-20T07:30:37.360Z,21.84
2018-07-20T07:33:06.687Z,22.32
2018-07-20T07:35:35.923Z,23.60
2018-07-20T07:38:05.138Z,22.13
2018-07-20T07:40:34.383Z,23.63
2018-07-20T07:43:03.599Z,23.36
2018-07-20T07:45:32.830Z,23.85
2018-07-20T07:48:02.071Z,23.72
2018-07-20T07:50:31.310Z,24.83
2018-07-20T07:53:00.554Z,25.36
2018-07-20T07:55:29.816Z,25.80
2018-07-20T07:57:59.077Z,23.35
2018-07-20T08:00:28.281Z,24.05
2018-07-20T08:02:57.598Z,17.76
2018-07-20T08:05:26.918Z,18.24
2018-07-20T08:07:56.183Z,19.14
2018-07-20T08:10:25.488Z,16.99
2018-07-20T08:12:54.602Z,16.27
2018-07-20T08:15:23.830Z,16.87
2018-07-20T08:17:53.100Z,18.37
2018-07-20T08:20:22.358Z,18.35
2018-07-20T08:22:51.642Z,17.56
2018-07-20T08:25:20.876Z,19.57
2018-07-20T08:27:50.114Z,18.65
2018-07-20T08:30:19.394Z,20.51
2018-07-20T08:32:48.668Z,19.16
2018-07-20T08:35:17.878Z,21.77
2018-07-20T08:37:48.354Z,23.45
2018-07-20T08:40:17.592Z,21.57
2018-07-20T08:42:46.839Z,20.52
2018-07-20T08:45:16.062Z,21.35
2018-07-20T08:47:45.284Z,24.26
2018-07-20T08:50:14.498Z,26.21
2018-07-20T08:52:43.790Z,21.71
2018-07-20T08:55:13.046Z,23.12
2018-07-20T08:57:42.283Z,22.76
2018-07-20T09:00:11.507Z,18.60
2018-07-20T09:02:40.915Z,17.27
2018-07-20T09:05:10.168Z,16.82
2018-07-20T09:07:39.357Z,18.70
2018-07-20T09:10:08.601Z,20.25
2018-07-20T09:12:37.894Z,20.70
2018-07-20T09:15:07.165Z,16.82
2018-07-20T09:17:36.373Z,16.68
2018-07-20T09:20:05.897Z,17.64
2018-07-20T09:22:35.204Z,20.15
2018-07-20T09:25:04.452Z,15.10
2018-07-20T09:27:33.694Z,16.15
2018-07-20T09:30:02.972Z,15.97
2018-07-20T09:32:32.235Z,17.68
2018-07-20T09:35:01.484Z,16.33
2018-07-20T09:37:30.730Z,13.15
2018-07-20T09:40:00.003Z,20.73
2018-07-20T09:42:29.227Z,14.75
2018-07-20T09:44:58.513Z,11.62
2018-07-20T09:47:27.752Z,11.18
2018-07-20T09:49:57.089Z,13.10
2018-07-20T09:52:26.394Z,15.52
2018-07-20T09:54:55.633Z,18.07
2018-07-20T09:57:25.278Z,18.20
2018-07-20T09:59:54.619Z,13.72
2018-07-20T10:02:24.726Z,14.87
2018-07-20T10:04:54.322Z,15.13
2018-07-20T10:07:23.568Z,13.80
2018-07-20T10:09:52.787Z,18.27
2018-07-20T10:12:22.051Z,15.33
2018-07-20T10:14:51.312Z,12.79
2018-07-20T10:17:20.525Z,11.54
2018-07-20T10:19:49.755Z,18.49
2018-07-20T10:22:19.020Z,15.94
2018-07-20T10:24:48.254Z,14.38
2018-07-20T10:27:17.502Z,12.19
2018-07-20T10:29:46.793Z,15.74
2018-07-20T10:32:16.044Z,18.75
2018-07-20T10:34:45.529Z,15.05
2018-07-20T10:37:14.878Z,13.15
2018-07-20T10:39:44.150Z,19.66
2018-07-20T10:42:13.365Z,23.71
2018-07-20T10:44:42.614Z,21.34
2018-07-20T10:47:11.884Z,20.66
2018-07-20T10:49:41.143Z,20.15
2018-07-20T10:52:10.447Z,21.27
2018-07-20T10:54:39.654Z,18.81
2018-07-20T10:57:09.518Z,18.99
2018-07-20T10:59:38.755Z,22.42
2018-07-20T11:02:07.981Z,19.33
2018-07-20T11:04:37.251Z,21.24
2018-07-20T11:07:06.548Z,23.47
2018-07-20T11:09:35.845Z,22.35
2018-07-20T11:12:05.070Z,22.95
2018-07-20T11:14:34.309Z,23.14
2018-07-20T11:17:03.530Z,24.05
2018-07-20T11:19:32.871Z,19.99
2018-07-20T11:22:02.147Z,14.81
2018-07-20T11:24:31.430Z,18.23
2018-07-20T11:27:00.994Z,19.98
2018-07-20T11:29:30.235Z,21.28
2018-07-20T11:31:59.626Z,17.11
2018-07-20T11:34:28.889Z,13.54
2018-07-20T11:36:58.189Z,21.50
2018-07-20T11:39:27.460Z,15.71
2018-07-20T11:41:56.754Z,12.26
2018-07-20T11:44:25.967Z,19.17
2018-07-20T11:46:55.255Z,22.83
2018-07-20T11:49:24.536Z,24.45
2018-07-20T11:51:54.508Z,24.97
2018-07-20T11:54:23.790Z,24.71
2018-07-20T11:56:53.042Z,23.49
2018-07-20T11:59:22.283Z,21.34
2018-07-20T12:01:51.556Z,25.14
2018-07-20T12:04:20.776Z,26.67
2018-07-20T12:06:50.094Z,25.62
2018-07-20T12:09:19.410Z,22.36
2018-07-20T12:11:48.646Z,23.74
2018-07-20T12:14:17.902Z,27.95
2018-07-20T12:16:47.146Z,24.34
2018-07-20T12:19:16.396Z,26.05
2018-07-20T12:21:45.622Z,29.39
2018-07-20T12:24:14.852Z,28.43
2018-07-20T12:26:44.090Z,27.15
2018-07-20T12:29:13.334Z,29.91
2018-07-20T12:31:42.560Z,26.83
2018-07-20T12:34:11.842Z,27.02
2018-07-20T12:36:41.098Z,26.31
2018-07-20T12:39:11.510Z,27.14
2018-07-20T12:41:41.581Z,30.52
2018-07-20T12:44:11.068Z,27.15
2018-07-20T12:46:40.961Z,24.57
2018-07-20T12:49:10.146Z,24.95
2018-07-20T12:51:39.418Z,26.08
2018-07-20T12:54:08.651Z,28.09
2018-07-20T12:56:52.173Z,25.47
2018-07-20T12:59:21.519Z,26.83
2018-07-20T13:01:50.763Z,27.76
2018-07-20T13:04:20.044Z,27.80
2018-07-20T13:06:49.283Z,29.37
2018-07-20T13:09:18.522Z,29.50
2018-07-20T13:11:47.835Z,27.20
2018-07-20T13:14:17.069Z,30.41
2018-07-20T13:16:46.430Z,27.35
2018-07-20T13:19:15.736Z,26.02
2018-07-20T13:21:46.122Z,24.46
2018-07-20T13:24:15.364Z,25.08
2018-07-20T13:26:44.611Z,26.08
2018-07-20T13:29:15.746Z,24.06
2018-07-20T13:31:45.082Z,25.67
2018-07-20T13:34:14.315Z,24.56
2018-07-20T13:36:43.576Z,25.36
2018-07-20T13:39:12.819Z,27.50
2018-07-20T13:41:42.199Z,27.43
2018-07-20T13:44:11.463Z,24.98
2018-07-20T13:46:40.715Z,26.16
2018-07-20T13:49:09.959Z,27.65
2018-07-20T13:51:39.186Z,27.81
2018-07-20T13:54:08.775Z,28.72
2018-07-20T13:56:38.043Z,27.38
2018-07-20T13:59:07.271Z,27.15
2018-07-20T14:01:36.615Z,25.48
2018-07-20T14:04:05.947Z,30.19
2018-07-20T14:06:35.187Z,29.23
2018-07-20T14:09:06.128Z,31.15
2018-07-20T14:11:36.675Z,30.94
2018-07-20T14:14:05.929Z,31.76
2018-07-20T14:16:35.227Z,31.18
2018-07-20T14:19:04.435Z,31.25
2018-07-20T14:21:33.710Z,29.90
2018-07-20T14:24:02.975Z,29.88
2018-07-20T14:26:32.238Z,26.73
2018-07-20T14:29:01.411Z,26.98
2018-07-20T14:31:30.666Z,26.93
2018-07-20T14:33:59.887Z,28.73
2018-07-20T14:36:29.116Z,25.45
2018-07-20T14:38:58.471Z,27.74
2018-07-20T14:41:27.709Z,27.30
2018-07-20T14:43:57.011Z,25.56
2018-07-20T14:46:26.244Z,28.07
2018-07-20T14:48:55.515Z,28.55
2018-07-20T14:51:24.841Z,29.21
2018-07-20T14:53:54.059Z,27.38
2018-07-20T14:56:23.302Z,25.39
2018-07-20T14:58:52.579Z,28.00
2018-07-20T15:01:21.895Z,29.86
2018-07-20T15:03:51.170Z,28.75
2018-07-20T15:06:20.423Z,29.96
2018-07-20T15:08:49.655Z,30.87
2018-07-20T15:11:18.926Z,30.07
2018-07-20T15:13:48.184Z,31.46
2018-07-20T15:16:17.438Z,31.74
2018-07-20T15:18:46.685Z,31.57
2018-07-20T15:21:16.015Z,31.97
2018-07-20T15:23:45.235Z,32.03
2018-07-20T15:26:14.559Z,33.65
2018-07-20T15:28:43.810Z,34.24
2018-07-20T15:31:13.063Z,34.42
2018-07-20T15:33:42.325Z,33.22
2018-07-20T15:36:11.584Z,32.70
2018-07-20T15:38:40.907Z,32.94
2018-07-20T15:41:10.286Z,33.60
2018-07-20T15:43:40.713Z,33.55
2018-07-20T15:46:13.340Z,32.97
2018-07-20T15:48:42.771Z,33.53
2018-07-20T15:51:12.006Z,34.85
2018-07-20T15:53:41.334Z,33.11
2018-07-20T15:56:10.503Z,33.55
2018-07-20T15:58:39.771Z,33.93
2018-07-20T16:01:09.094Z,33.81
2018-07-20T16:03:38.351Z,33.91
2018-07-20T16:06:07.600Z,33.99
2018-07-20T16:08:37.105Z,34.76
2018-07-20T16:11:06.370Z,33.01
2018-07-20T16:13:35.606Z,33.59
2018-07-20T16:16:04.936Z,31.75
2018-07-20T16:18:34.174Z,32.66
2018-07-20T16:21:03.416Z,32.60
2018-07-20T16:23:32.675Z,32.01
2018-07-20T16:26:02.040Z,30.93
2018-07-20T16:28:31.211Z,33.57
2018-07-20T16:31:00.525Z,32.72
2018-07-20T16:33:29.770Z,34.68
2018-07-20T16:35:59.098Z,35.05
2018-07-20T16:38:28.331Z,33.04
2018-07-20T16:40:57.562Z,36.12
2018-07-20T16:43:26.852Z,36.39
2018-07-20T16:45:56.189Z,36.09
2018-07-20T16:48:25.414Z,35.22
2018-07-20T16:50:54.692Z,35.74
2018-07-20T16:53:23.884Z,36.32
2018-07-20T16:55:53.250Z,35.83
2018-07-20T16:58:22.783Z,36.08
2018-07-20T17:00:52.195Z,36.93
2018-07-20T17:03:21.560Z,35.76
2018-07-20T17:05:50.794Z,36.92
2018-07-20T17:08:20.176Z,35.53
2018-07-20T17:10:49.454Z,34.55
2018-07-20T17:13:19.672Z,33.33
2018-07-20T17:15:48.928Z,34.23
2018-07-20T17:18:18.158Z,33.91
2018-07-20T17:20:47.451Z,34.51
2018-07-20T17:23:16.724Z,34.18
2018-07-20T17:25:46.158Z,34.30
2018-07-20T17:28:15.451Z,35.15
2018-07-20T17:30:44.654Z,35.08
2018-07-20T17:33:13.896Z,35.57
2018-07-20T17:35:43.173Z,35.33
2018-07-20T17:38:12.375Z,36.31
2018-07-20T17:40:41.619Z,36.22
2018-07-20T17:43:10.922Z,37.53
2018-07-20T17:45:40.203Z,38.02
2018-07-20T17:48:09.474Z,38.38
2018-07-20T17:50:38.657Z,39.11
2018-07-20T17:53:07.934Z,39.37
2018-07-20T17:55:37.199Z,39.55
2018-07-20T17:58:06.556Z,41.76
2018-07-20T18:00:35.958Z,43.86
2018-07-20T18:03:05.306Z,42.50
2018-07-20T18:05:34.558Z,41.55
2018-07-20T18:08:03.792Z,42.06
2018-07-20T18:10:33.086Z,43.25
2018-07-20T18:13:02.311Z,43.33
2018-07-20T18:15:31.608Z,46.93
2018-07-20T18:18:00.799Z,46.04
2018-07-20T18:20:30.066Z,46.62
2018-07-20T18:22:59.274Z,47.27
2018-07-20T18:25:28.514Z,46.99
2018-07-20T18:27:57.779Z,45.18
2018-07-20T18:30:27.038Z,46.51
2018-07-20T18:32:56.282Z,47.83
2018-07-20T18:35:25.602Z,47.96
2018-07-20T18:37:54.835Z,47.00
2018-07-20T18:40:24.098Z,44.61
2018-07-20T18:42:53.398Z,44.42
2018-07-20T18:45:22.643Z,44.35
2018-07-20T18:47:51.920Z,45.09
2018-07-20T18:50:21.180Z,45.70
2018-07-20T18:52:50.406Z,46.39
2018-07-20T18:55:19.682Z,46.90
2018-07-20T18:57:48.934Z,46.86
2018-07-20T19:00:18.194Z,47.77
2018-07-20T19:02:47.434Z,48.00
2018-07-20T19:05:16.703Z,47.91
2018-07-20T19:10:14.255Z,49.04
2018-07-20T19:12:43.478Z,49.51
2018-07-20T19:15:12.843Z,50.17
2018-07-20T19:17:41.965Z,50.65
2018-07-20T19:20:11.220Z,50.02
2018-07-20T19:22:40.459Z,50.87
2018-07-20T19:25:09.763Z,50.65
2018-07-20T19:27:39.003Z,51.63
2018-07-20T19:30:08.267Z,51.69
2018-07-20T19:32:37.553Z,51.61
2018-07-20T19:35:06.863Z,51.29
2018-07-20T19:37:36.202Z,51.87
2018-07-20T19:40:05.477Z,51.59
2018-07-20T19:42:34.767Z,51.44
2018-07-20T19:45:04.031Z,52.14
2018-07-20T19:47:33.283Z,52.99
2018-07-20T19:50:02.554Z,53.86
2018-07-20T19:52:31.882Z,53.72
2018-07-20T19:55:01.143Z,54.05
2018-07-20T19:57:30.414Z,54.03
2018-07-20T19:59:59.649Z,53.87
2018-07-20T20:02:28.914Z,54.78
2018-07-20T20:04:58.144Z,54.84
2018-07-20T20:07:27.354Z,54.72
2018-07-20T20:09:56.614Z,55.85
2018-07-20T20:12:25.874Z,57.10
2018-07-20T20:14:55.142Z,57.83
2018-07-20T20:17:24.386Z,58.14
2018-07-20T20:19:53.638Z,57.40
2018-07-20T20:22:22.875Z,56.90
2018-07-20T20:24:52.150Z,57.93
2018-07-20T20:27:21.391Z,56.82
2018-07-20T20:29:50.662Z,55.94
2018-07-20T20:32:19.885Z,55.94
2018-07-20T20:34:49.126Z,55.94
2018-07-20T20:37:18.357Z,54.79
2018-07-20T20:39:47.606Z,55.32
2018-07-20T20:42:16.817Z,55.25
2018-07-20T20:44:46.111Z,55.47
2018-07-20T20:47:15.450Z,56.69
2018-07-20T20:49:45.922Z,57.17
2018-07-20T20:52:15.219Z,57.89
2018-07-20T20:54:44.466Z,59.29
2018-07-20T20:57:13.766Z,60.00
2018-07-20T20:59:43.036Z,59.05
2018-07-20T21:02:12.274Z,58.72
2018-07-20T21:04:41.581Z,58.47
2018-07-20T21:07:10.870Z,58.99
2018-07-20T21:09:40.154Z,60.13
2018-07-20T21:12:09.812Z,60.87
2018-07-20T21:14:38.916Z,61.69
2018-07-20T21:17:08.215Z,62.42
2018-07-20T21:19:37.484Z,62.62
2018-07-20T21:22:06.718Z,63.68
2018-07-20T21:24:35.962Z,63.82
2018-07-20T21:27:05.190Z,66.00
2018-07-20T21:29:34.440Z,68.89
2018-07-20T21:32:03.694Z,71.16
2018-07-20T21:34:32.948Z,74.30
2018-07-20T21:37:02.173Z,76.36
2018-07-20T21:39:31.405Z,76.77
2018-07-20T21:42:00.694Z,77.79
2018-07-20T21:44:30.007Z,77.58
2018-07-20T21:46:59.276Z,77.33
2018-07-20T21:49:29.744Z,77.63
2018-07-20T21:52:05.646Z,78.08
2018-07-20T21:54:34.915Z,78.74
2018-07-20T21:57:04.170Z,80.42
2018-07-20T21:59:33.562Z,79.90
2018-07-20T22:02:02.797Z,79.73
2018-07-20T22:04:32.978Z,79.38
2018-07-20T22:07:02.253Z,79.40
2018-07-20T22:09:31.520Z,78.63
2018-07-20T22:12:00.799Z,78.67
2018-07-20T22:14:30.011Z,76.75
2018-07-20T22:16:59.266Z,75.95
2018-07-20T22:19:28.476Z,76.94
2018-07-20T22:21:57.729Z,76.80
2018-07-20T22:24:26.926Z,76.49
2018-07-20T22:26:56.197Z,77.27
2018-07-20T22:29:25.410Z,76.85
2018-07-20T22:31:54.709Z,79.12
2018-07-20T22:34:23.919Z,80.83
2018-07-20T22:36:53.116Z,77.96
2018-07-20T22:39:22.354Z,78.90
2018-07-20T22:41:51.592Z,79.67
2018-07-20T22:44:20.962Z,80.05
2018-07-20T22:46:50.216Z,79.50
2018-07-20T22:49:19.476Z,79.53
2018-07-20T22:51:48.716Z,78.43
2018-07-20T22:54:17.954Z,79.33
2018-07-20T22:56:47.439Z,80.44
2018-07-20T22:59:16.666Z,80.80
2018-07-20T23:01:45.882Z,79.74
2018-07-20T23:04:15.174Z,81.44
2018-07-20T23:06:44.399Z,80.63
2018-07-20T23:09:13.655Z,81.02
2018-07-20T23:11:42.866Z,81.39
2018-07-20T23:14:12.107Z,82.00
2018-07-20T23:16:41.380Z,83.10
2018-07-20T23:19:10.599Z,83.76
2018-07-20T23:21:39.886Z,83.64
2018-07-20T23:24:09.272Z,83.28
2018-07-20T23:26:38.548Z,84.59
2018-07-20T23:29:08.845Z,87.05
2018-07-20T23:31:38.062Z,86.62
2018-07-20T23:34:07.616Z,88.12
2018-07-20T23:36:36.891Z,89.27
2018-07-20T23:39:08.594Z,89.53
2018-07-20T23:41:37.912Z,89.62
2018-07-20T23:44:07.463Z,87.78
2018-07-20T23:46:36.687Z,87.33
2018-07-20T23:49:06.004Z,88.71
2018-07-20T23:51:35.226Z,87.32
2018-07-20T23:54:04.447Z,88.29
2018-07-20T23:56:33.736Z,89.48
2018-07-20T23:59:03.016Z,88.23
